Time;durP1;ratioP1;P1;durP2;ratioP2;P2;SDS_P1;SDS_P2;PMS_P1;PMS_P2;Temp;Humidity;BMP_temperature;BMP_pressure;BME280_temperature;BME280_humidity;BME280_pressure;Samples;Min_cycle;Max_cycle;Signal;HPM_P1;HPM_P2
2022/07/22 00:00:25;;;;;;;;;;;26.00;89.00;;;;;;5057112;28;19929;-71
2022/07/22 00:02:51;;;;;;;;;;;26.00;88.90;;;;;;5075432;28;19931;-71
2022/07/22 00:05:16;;;;;;;;;;;26.00;89.40;;;;;;5057166;28;19963;-71
2022/07/22 00:07:42;;;;;;;;;;;26.00;88.90;;;;;;5074926;28;19916;-71
2022/07/22 00:10:10;;;;;;;;;;;25.90;88.90;;;;;;5074988;28;19916;-71
2022/07/22 00:12:36;;;;;;;;;;;26.00;88.90;;;;;;5074701;28;19913;-69
2022/07/22 00:15:02;;;;;;;;;;;25.90;88.90;;;;;;5074791;28;19913;-71
2022/07/22 00:17:27;;;;;;;;;;;26.00;88.90;;;;;;5074547;28;19947;-71
2022/07/22 00:19:53;;;;;;;;;;;25.90;88.80;;;;;;5074782;28;19908;-71
2022/07/22 00:22:18;;;;;;;;;;;25.90;88.80;;;;;;5074386;28;19908;-72
2022/07/22 00:24:44;;;;;;;;;;;25.90;88.90;;;;;;5074694;28;19962;-71
2022/07/22 00:27:09;;;;;;;;;;;25.90;88.90;;;;;;5074426;28;19908;-71
2022/07/22 00:29:34;;;;;;;;;;;25.90;88.90;;;;;;5074383;28;19967;-71
2022/07/22 00:32:00;;;;;;;;;;;25.90;88.90;;;;;;5074484;28;19961;-71
2022/07/22 00:34:25;;;;;;;;;;;25.90;88.90;;;;;;5074185;28;19913;-71
2022/07/22 00:36:51;;;;;;;;;;;25.90;88.90;;;;;;5074504;28;19952;-71
2022/07/22 00:39:16;;;;;;;;;;;25.90;88.90;;;;;;5074200;28;19908;-71
2022/07/22 00:41:42;;;;;;;;;;;25.90;88.90;;;;;;5074205;28;20290;-71
2022/07/22 00:44:08;;;;;;;;;;;25.90;88.90;;;;;;5074379;28;20409;-71
2022/07/22 00:46:34;;;;;;;;;;;25.90;88.90;;;;;;5074517;28;19955;-71
2022/07/22 00:49:00;;;;;;;;;;;25.90;88.90;;;;;;5074722;28;19916;-72
2022/07/22 00:51:27;;;;;;;;;;;25.90;88.90;;;;;;5074664;28;20410;-71
2022/07/22 00:53:53;;;;;;;;;;;25.90;88.90;;;;;;5056268;28;19916;-71
2022/07/22 00:56:19;;;;;;;;;;;25.90;88.90;;;;;;5074328;28;19951;-71
2022/07/22 00:58:45;;;;;;;;;;;25.90;88.90;;;;;;5073828;28;20302;-71
2022/07/22 01:01:11;;;;;;;;;;;25.90;88.90;;;;;;5073505;28;19908;-71
2022/07/22 01:03:36;;;;;;;;;;;25.90;88.90;;;;;;5074250;28;20400;-71
2022/07/22 01:06:02;;;;;;;;;;;25.90;88.90;;;;;;5056276;28;19909;-71
2022/07/22 01:08:28;;;;;;;;;;;25.90;88.90;;;;;;5074134;28;19916;-71
2022/07/22 01:10:53;;;;;;;;;;;25.90;88.90;;;;;;5074123;28;19909;-71
2022/07/22 01:13:19;;;;;;;;;;;25.90;88.90;;;;;;5074000;28;20366;-71
2022/07/22 01:15:44;;;;;;;;;;;25.90;88.90;;;;;;5074307;28;20359;-71
2022/07/22 01:18:10;;;;;;;;;;;25.90;88.90;;;;;;5074083;28;20387;-70
2022/07/22 01:20:36;;;;;;;;;;;25.90;88.80;;;;;;5074511;28;19909;-70
2022/07/22 01:23:01;;;;;;;;;;;25.90;88.90;;;;;;5074141;28;19935;-71
2022/07/22 01:25:27;;;;;;;;;;;25.90;88.90;;;;;;5056330;28;19908;-71
2022/07/22 01:27:53;;;;;;;;;;;25.90;88.80;;;;;;5074038;28;19962;-72
2022/07/22 01:30:18;;;;;;;;;;;25.90;88.80;;;;;;5073669;28;19909;-71
2022/07/22 01:32:44;;;;;;;;;;;25.90;88.80;;;;;;5073947;28;20088;-71
2022/07/22 01:35:09;;;;;;;;;;;25.90;88.80;;;;;;5073866;28;19912;-71
2022/07/22 01:37:35;;;;;;;;;;;25.90;88.80;;;;;;5056077;28;20417;-71
2022/07/22 01:40:00;;;;;;;;;;;25.90;88.80;;;;;;5073569;28;19908;-71
2022/07/22 01:42:26;;;;;;;;;;;25.90;88.90;;;;;;5073599;28;19954;-71
2022/07/22 01:44:52;;;;;;;;;;;25.90;88.90;;;;;;5073504;28;19909;-70
2022/07/22 01:47:17;;;;;;;;;;;25.80;88.80;;;;;;5073485;28;20007;-71
2022/07/22 01:49:43;;;;;;;;;;;25.90;88.90;;;;;;5073510;28;19912;-71
2022/07/22 01:52:08;;;;;;;;;;;25.90;88.80;;;;;;5073832;28;19916;-70
2022/07/22 01:54:34;;;;;;;;;;;25.90;88.80;;;;;;5073437;28;19920;-71
2022/07/22 01:56:59;;;;;;;;;;;25.90;88.80;;;;;;5074040;28;19919;-71
2022/07/22 01:59:24;;;;;;;;;;;25.90;88.80;;;;;;5073611;28;20015;-71
2022/07/22 02:01:50;;;;;;;;;;;25.90;88.80;;;;;;5073641;28;19931;-71
2022/07/22 02:04:15;;;;;;;;;;;25.90;88.80;;;;;;5055679;28;19909;-71
2022/07/22 02:06:41;;;;;;;;;;;25.90;88.80;;;;;;5073376;28;19951;-71
2022/07/22 02:09:07;;;;;;;;;;;25.90;88.80;;;;;;5055911;28;19908;-71
2022/07/22 02:11:33;;;;;;;;;;;25.90;88.80;;;;;;5074154;28;20271;-71
2022/07/22 02:13:58;;;;;;;;;;;25.80;88.70;;;;;;5076908;28;19912;-71
2022/07/22 02:16:24;;;;;;;;;;;25.80;88.80;;;;;;5077200;28;19951;-71
2022/07/22 02:18:50;;;;;;;;;;;25.80;88.80;;;;;;5077514;28;19912;-71
2022/07/22 02:21:15;;;;;;;;;;;25.80;88.80;;;;;;5077466;28;19912;-70
2022/07/22 02:23:41;;;;;;;;;;;25.80;88.80;;;;;;5076720;28;19909;-70
2022/07/22 02:26:06;;;;;;;;;;;25.80;88.70;;;;;;5076796;28;19908;-71
2022/07/22 02:28:32;;;;;;;;;;;25.80;88.80;;;;;;5058978;28;19919;-71
2022/07/22 02:30:57;;;;;;;;;;;25.80;88.80;;;;;;5059276;28;19969;-71
2022/07/22 02:33:23;;;;;;;;;;;25.80;88.80;;;;;;5076620;28;19909;-71
2022/07/22 02:35:48;;;;;;;;;;;25.80;88.90;;;;;;5076536;28;20345;-72
2022/07/22 02:38:14;;;;;;;;;;;25.80;88.80;;;;;;5076830;28;19995;-71
2022/07/22 02:40:39;;;;;;;;;;;25.80;88.80;;;;;;5076553;28;19909;-71
2022/07/22 02:43:06;;;;;;;;;;;25.80;88.80;;;;;;5076445;28;19912;-72
2022/07/22 02:45:32;;;;;;;;;;;25.80;88.80;;;;;;5058861;28;19908;-71
2022/07/22 02:47:57;;;;;;;;;;;25.80;88.80;;;;;;5076526;28;20432;-71
2022/07/22 02:50:22;;;;;;;;;;;25.80;88.80;;;;;;5076562;28;19938;-71
2022/07/22 02:52:48;;;;;;;;;;;25.80;88.80;;;;;;5058598;28;19931;-71
2022/07/22 02:55:14;;;;;;;;;;;25.80;88.80;;;;;;5076122;28;19957;-70
2022/07/22 02:57:39;;;;;;;;;;;25.80;88.80;;;;;;5076130;28;19913;-70
2022/07/22 03:00:09;;;;;;;;;;;25.80;88.80;;;;;;5076424;28;19925;-71
2022/07/22 03:02:35;;;;;;;;;;;25.80;88.80;;;;;;5076264;28;19912;-71
2022/07/22 03:05:01;;;;;;;;;;;25.80;88.80;;;;;;5058350;28;19916;-71
2022/07/22 03:07:26;;;;;;;;;;;25.80;88.90;;;;;;5075911;28;19908;-71
2022/07/22 03:09:52;;;;;;;;;;;25.80;88.80;;;;;;5075838;28;20007;-71
2022/07/22 03:12:17;;;;;;;;;;;25.80;88.80;;;;;;5058372;28;19915;-71
2022/07/22 03:14:43;;;;;;;;;;;25.80;89.30;;;;;;5075721;28;19917;-71
2022/07/22 03:17:08;;;;;;;;;;;25.80;88.80;;;;;;5058160;28;20011;-71
2022/07/22 03:19:34;;;;;;;;;;;25.80;88.80;;;;;;5075884;28;19915;-71
2022/07/22 03:21:59;;;;;;;;;;;25.80;88.80;;;;;;5075514;28;19969;-71
2022/07/22 03:24:25;;;;;;;;;;;25.80;88.80;;;;;;5075661;28;19989;-71
2022/07/22 03:26:50;;;;;;;;;;;25.80;88.80;;;;;;5075634;28;19967;-71
2022/07/22 03:29:15;;;;;;;;;;;25.80;88.80;;;;;;5057754;28;20363;-71
2022/07/22 03:31:41;;;;;;;;;;;25.80;88.80;;;;;;5075534;28;20274;-70
2022/07/22 03:34:06;;;;;;;;;;;25.80;88.80;;;;;;5075452;28;19912;-71
2022/07/22 03:36:32;;;;;;;;;;;25.80;88.80;;;;;;5075651;28;19921;-71
2022/07/22 03:38:57;;;;;;;;;;;25.80;88.80;;;;;;5075392;28;19908;-71
2022/07/22 03:41:23;;;;;;;;;;;25.80;88.80;;;;;;5075242;28;20038;-70
2022/07/22 03:43:48;;;;;;;;;;;25.80;88.80;;;;;;5075187;28;20351;-71
2022/07/22 03:46:14;;;;;;;;;;;25.80;88.70;;;;;;5057448;28;19958;-71
2022/07/22 03:48:39;;;;;;;;;;;25.80;88.80;;;;;;5057410;28;20363;-71
2022/07/22 03:51:05;;;;;;;;;;;25.80;88.80;;;;;;5075325;28;19913;-71
2022/07/22 03:53:32;;;;;;;;;;;25.80;88.70;;;;;;5075152;28;19908;-71
2022/07/22 03:55:58;;;;;;;;;;;25.80;88.80;;;;;;5057223;28;19916;-71
2022/07/22 03:58:24;;;;;;;;;;;25.80;88.80;;;;;;5075082;28;19909;-71
2022/07/22 04:00:49;;;;;;;;;;;25.80;88.80;;;;;;5057398;28;19960;-71
2022/07/22 04:03:15;;;;;;;;;;;25.80;88.70;;;;;;5075382;28;20019;-71
2022/07/22 04:05:40;;;;;;;;;;;25.80;88.70;;;;;;5057029;28;19958;-71
2022/07/22 04:08:06;;;;;;;;;;;25.80;88.70;;;;;;5074892;28;19916;-71
2022/07/22 04:10:31;;;;;;;;;;;25.80;88.70;;;;;;5056970;28;20386;-71
2022/07/22 04:12:57;;;;;;;;;;;25.80;88.70;;;;;;5074733;28;19912;-71
2022/07/22 04:15:22;;;;;;;;;;;25.80;88.70;;;;;;5074753;28;19965;-71
2022/07/22 04:17:48;;;;;;;;;;;25.80;88.70;;;;;;5074808;28;20355;-71
2022/07/22 04:20:14;;;;;;;;;;;25.80;88.70;;;;;;5074790;28;19974;-70
2022/07/22 04:22:39;;;;;;;;;;;25.80;88.70;;;;;;5074906;28;19909;-71
2022/07/22 04:25:05;;;;;;;;;;;25.80;88.70;;;;;;5056561;28;20313;-71
2022/07/22 04:27:30;;;;;;;;;;;25.80;89.10;;;;;;5074321;28;19909;-71
2022/07/22 04:29:56;;;;;;;;;;;25.90;88.60;;;;;;5074481;28;19919;-70
2022/07/22 04:32:22;;;;;;;;;;;25.90;88.60;;;;;;5056435;28;19908;-71
2022/07/22 04:34:47;;;;;;;;;;;25.90;88.60;;;;;;5073238;28;19916;-71
2022/07/22 04:37:13;;;;;;;;;;;25.90;88.50;;;;;;5056520;28;19920;-70
2022/07/22 04:39:38;;;;;;;;;;;25.90;88.50;;;;;;5056246;28;20310;-71
2022/07/22 04:42:04;;;;;;;;;;;25.90;88.40;;;;;;5056144;28;19909;-71
2022/07/22 04:44:29;;;;;;;;;;;26.00;88.40;;;;;;5074011;28;19942;-71
2022/07/22 04:46:55;;;;;;;;;;;26.00;88.50;;;;;;5074045;28;19966;-71
2022/07/22 04:49:20;;;;;;;;;;;26.00;88.40;;;;;;5074127;28;19912;-71
2022/07/22 04:51:46;;;;;;;;;;;26.00;88.40;;;;;;5056309;28;19930;-71
2022/07/22 04:54:11;;;;;;;;;;;26.00;88.40;;;;;;5074204;28;20275;-71
2022/07/22 04:56:37;;;;;;;;;;;26.00;88.40;;;;;;5073554;28;20264;-71
2022/07/22 04:59:03;;;;;;;;;;;26.00;88.40;;;;;;5055821;28;20328;-70
2022/07/22 05:01:28;;;;;;;;;;;26.00;88.40;;;;;;5073596;28;19908;-71
2022/07/22 05:03:54;;;;;;;;;;;26.00;88.40;;;;;;5056074;28;19916;-71
2022/07/22 05:06:19;;;;;;;;;;;26.00;88.40;;;;;;5073958;28;20263;-71
2022/07/22 05:08:44;;;;;;;;;;;26.00;88.40;;;;;;5073917;28;19966;-71
2022/07/22 05:11:10;;;;;;;;;;;26.00;88.40;;;;;;5055851;28;19943;-71
2022/07/22 05:13:36;;;;;;;;;;;26.00;88.40;;;;;;5073525;28;19908;-71
2022/07/22 05:16:05;;;;;;;;;;;26.00;88.40;;;;;;5055542;28;19982;-71
2022/07/22 05:18:30;;;;;;;;;;;26.00;88.40;;;;;;5055375;28;19920;-71
2022/07/22 05:20:56;;;;;;;;;;;26.00;88.50;;;;;;5073995;28;19909;-72
2022/07/22 05:23:21;;;;;;;;;;;26.00;88.50;;;;;;5073835;28;19908;-71
2022/07/22 05:25:47;;;;;;;;;;;26.00;88.50;;;;;;5073477;28;19916;-72
2022/07/22 05:28:12;;;;;;;;;;;26.00;88.50;;;;;;5055681;28;19908;-71
2022/07/22 05:30:38;;;;;;;;;;;26.00;88.60;;;;;;5073836;28;19931;-71
2022/07/22 05:33:03;;;;;;;;;;;26.00;88.60;;;;;;5073163;28;19909;-71
2022/07/22 05:35:29;;;;;;;;;;;26.00;88.50;;;;;;5073146;28;19913;-71
2022/07/22 05:37:54;;;;;;;;;;;26.00;88.50;;;;;;5073569;28;19986;-71
2022/07/22 05:40:19;;;;;;;;;;;26.00;88.50;;;;;;5073990;28;20010;-70
2022/07/22 05:42:45;;;;;;;;;;;26.00;88.50;;;;;;5073217;28;19920;-71
2022/07/22 05:45:10;;;;;;;;;;;26.00;88.50;;;;;;5055556;28;19909;-72
2022/07/22 05:47:36;;;;;;;;;;;26.10;88.60;;;;;;5077555;28;19916;-72
2022/07/22 05:50:02;;;;;;;;;;;26.00;88.50;;;;;;5077038;28;19999;-72
2022/07/22 05:52:27;;;;;;;;;;;26.00;88.50;;;;;;5077399;28;20339;-72
2022/07/22 05:54:53;;;;;;;;;;;26.00;88.50;;;;;;5077001;28;19919;-72
2022/07/22 05:57:19;;;;;;;;;;;26.00;88.50;;;;;;5077250;28;19920;-72
2022/07/22 05:59:44;;;;;;;;;;;26.00;88.50;;;;;;5077058;28;19924;-72
2022/07/22 06:02:09;;;;;;;;;;;26.00;88.50;;;;;;5076838;28;19955;-72
2022/07/22 06:04:35;;;;;;;;;;;26.00;88.50;;;;;;5076845;28;19912;-72
2022/07/22 06:07:00;;;;;;;;;;;26.00;88.50;;;;;;5059037;28;20011;-71
2022/07/22 06:09:26;;;;;;;;;;;26.00;88.50;;;;;;5076727;28;19909;-71
2022/07/22 06:11:51;;;;;;;;;;;26.00;88.50;;;;;;5058750;28;19909;-71
2022/07/22 06:14:17;;;;;;;;;;;26.00;88.50;;;;;;5076445;28;19913;-71
2022/07/22 06:16:42;;;;;;;;;;;26.00;88.60;;;;;;5076834;28;20389;-72
2022/07/22 06:19:08;;;;;;;;;;;26.00;88.60;;;;;;5058760;28;19908;-71
2022/07/22 06:21:33;;;;;;;;;;;26.00;88.50;;;;;;5076396;28;19909;-71
2022/07/22 06:23:59;;;;;;;;;;;26.00;88.50;;;;;;5076333;28;19908;-72
2022/07/22 06:26:24;;;;;;;;;;;26.00;88.60;;;;;;5076406;28;20315;-71
2022/07/22 06:28:50;;;;;;;;;;;26.00;88.60;;;;;;5076200;28;19909;-71
2022/07/22 06:31:16;;;;;;;;;;;26.00;88.60;;;;;;5076385;28;19995;-70
2022/07/22 06:33:41;;;;;;;;;;;26.00;88.50;;;;;;5058391;28;19916;-69
2022/07/22 06:36:07;;;;;;;;;;;26.00;88.60;;;;;;5075843;28;19912;-69
2022/07/22 06:38:33;;;;;;;;;;;26.00;88.60;;;;;;5076605;28;19947;-70
2022/07/22 06:40:58;;;;;;;;;;;26.00;88.60;;;;;;5076095;28;20011;-70
2022/07/22 06:43:24;;;;;;;;;;;26.00;88.60;;;;;;5076409;28;20370;-70
2022/07/22 06:45:50;;;;;;;;;;;26.00;88.60;;;;;;5076048;28;20003;-70
2022/07/22 06:48:16;;;;;;;;;;;26.00;88.60;;;;;;5075900;28;19920;-69
2022/07/22 06:50:41;;;;;;;;;;;26.00;88.60;;;;;;5058422;28;20330;-69
2022/07/22 06:53:07;;;;;;;;;;;26.00;88.60;;;;;;5076233;28;19909;-70
2022/07/22 06:55:32;;;;;;;;;;;26.00;88.60;;;;;;5075758;28;19916;-70
2022/07/22 06:57:58;;;;;;;;;;;26.00;88.60;;;;;;5057245;28;19923;-70
2022/07/22 07:00:23;;;;;;;;;;;26.00;88.60;;;;;;5076061;28;19927;-70
2022/07/22 07:02:49;;;;;;;;;;;26.00;88.60;;;;;;5057891;28;20044;-70
2022/07/22 07:05:14;;;;;;;;;;;26.00;88.50;;;;;;5075748;28;19928;-69
2022/07/22 07:07:40;;;;;;;;;;;26.00;88.60;;;;;;5057830;28;19912;-70
2022/07/22 07:10:06;;;;;;;;;;;26.00;89.10;;;;;;5075781;28;19908;-70
2022/07/22 07:12:31;;;;;;;;;;;26.00;88.60;;;;;;5076126;28;19916;-70
2022/07/22 07:14:57;;;;;;;;;;;26.00;88.50;;;;;;5075205;28;19912;-70
2022/07/22 07:17:24;;;;;;;;;;;26.00;88.50;;;;;;5057807;28;19955;-70
2022/07/22 07:19:49;;;;;;;;;;;26.00;88.60;;;;;;5075404;28;19962;-71
2022/07/22 07:22:15;;;;;;;;;;;26.00;88.60;;;;;;5075160;28;19912;-69
2022/07/22 07:24:41;;;;;;;;;;;26.00;88.50;;;;;;5075197;28;20359;-71
2022/07/22 07:27:06;;;;;;;;;;;26.00;88.50;;;;;;5075208;28;19916;-70
2022/07/22 07:29:32;;;;;;;;;;;26.00;88.60;;;;;;5075129;28;20282;-71
2022/07/22 07:31:57;;;;;;;;;;;26.00;88.50;;;;;;5057488;28;20003;-70
2022/07/22 07:34:23;;;;;;;;;;;26.00;88.50;;;;;;5074789;28;19919;-71
2022/07/22 07:36:48;;;;;;;;;;;26.00;88.40;;;;;;5057200;28;19920;-70
2022/07/22 07:39:14;;;;;;;;;;;26.00;88.40;;;;;;5075248;28;19924;-71
2022/07/22 07:41:39;;;;;;;;;;;26.10;88.40;;;;;;5057410;28;20082;-70
2022/07/22 07:44:05;;;;;;;;;;;26.10;88.40;;;;;;5074770;28;19931;-71
2022/07/22 07:46:31;;;;;;;;;;;26.10;88.50;;;;;;5075141;28;19911;-70
2022/07/22 07:48:56;;;;;;;;;;;26.10;88.50;;;;;;5056939;28;20266;-71
2022/07/22 07:51:22;;;;;;;;;;;26.10;88.40;;;;;;5074428;28;19908;-70
2022/07/22 07:53:47;;;;;;;;;;;26.10;88.40;;;;;;5057100;28;19915;-70
2022/07/22 07:56:13;;;;;;;;;;;26.10;88.40;;;;;;5074933;28;19919;-70
2022/07/22 07:58:39;;;;;;;;;;;26.10;88.40;;;;;;5074795;28;19943;-70
2022/07/22 08:01:04;;;;;;;;;;;26.10;88.40;;;;;;5074604;28;19911;-70
2022/07/22 08:03:30;;;;;;;;;;;26.10;88.50;;;;;;5074715;28;20271;-70
2022/07/22 08:05:55;;;;;;;;;;;26.10;88.40;;;;;;5074606;28;20007;-70
2022/07/22 08:08:21;;;;;;;;;;;26.10;88.50;;;;;;5074586;28;20328;-70
2022/07/22 08:10:46;;;;;;;;;;;26.10;88.40;;;;;;5056532;28;19908;-69
2022/07/22 08:13:12;;;;;;;;;;;26.10;88.40;;;;;;5074509;28;19948;-70
2022/07/22 08:15:37;;;;;;;;;;;26.10;88.40;;;;;;5074270;28;20015;-70
2022/07/22 08:18:03;;;;;;;;;;;26.10;88.50;;;;;;5074741;28;20374;-71
2022/07/22 08:20:29;;;;;;;;;;;26.10;88.50;;;;;;5074457;28;19916;-70
2022/07/22 08:22:55;;;;;;;;;;;26.10;88.40;;;;;;5073604;28;19988;-70
2022/07/22 08:25:21;;;;;;;;;;;26.10;88.40;;;;;;5056463;28;19912;-71
2022/07/22 08:27:46;;;;;;;;;;;26.10;88.40;;;;;;5056439;28;19977;-68
2022/07/22 08:30:12;;;;;;;;;;;26.10;88.50;;;;;;5073974;28;20367;-71
2022/07/22 08:32:37;;;;;;;;;;;26.10;88.40;;;;;;5074222;28;19916;-70
2022/07/22 08:35:03;;;;;;;;;;;26.10;88.40;;;;;;5073676;28;19924;-70
2022/07/22 08:37:29;;;;;;;;;;;26.10;88.50;;;;;;5056007;28;19966;-70
2022/07/22 08:39:55;;;;;;;;;;;26.10;88.40;;;;;;5074066;28;19912;-70
2022/07/22 08:42:21;;;;;;;;;;;26.10;88.40;;;;;;5073818;28;19915;-70
2022/07/22 08:44:47;;;;;;;;;;;26.10;88.50;;;;;;5073729;28;20370;-70
2022/07/22 08:47:13;;;;;;;;;;;26.10;88.40;;;;;;5074075;28;19971;-72
2022/07/22 08:49:38;;;;;;;;;;;26.10;88.40;;;;;;5056244;28;19912;-72
2022/07/22 08:52:04;;;;;;;;;;;26.10;88.50;;;;;;5074149;28;20374;-72
2022/07/22 08:54:29;;;;;;;;;;;26.10;88.40;;;;;;5074128;28;19912;-71
2022/07/22 08:56:55;;;;;;;;;;;26.00;88.40;;;;;;5073878;28;20321;-71
2022/07/22 08:59:20;;;;;;;;;;;26.10;88.40;;;;;;5055810;28;19927;-71
2022/07/22 09:02:04;;;;;;;;;;;26.10;88.50;;;;;;5073696;28;20373;-71
2022/07/22 09:04:31;;;;;;;;;;;26.10;88.50;;;;;;5074017;28;20343;-71
2022/07/22 09:06:56;;;;;;;;;;;26.10;88.40;;;;;;5073871;28;19909;-71
2022/07/22 09:09:31;;;;;;;;;;;26.10;88.50;;;;;;5073898;28;19908;-71
2022/07/22 09:12:03;;;;;;;;;;;26.10;88.50;;;;;;5073832;28;19961;-72
2022/07/22 09:14:42;;;;;;;;;;;26.10;88.50;;;;;;5073489;28;20432;-72
2022/07/22 09:17:21;;;;;;;;;;;26.10;88.50;;;;;;5073841;28;19919;-72
2022/07/22 09:19:47;;;;;;;;;;;26.00;88.40;;;;;;5056353;28;20236;-72
2022/07/22 09:22:12;;;;;;;;;;;26.10;88.50;;;;;;5079745;28;19915;-72
2022/07/22 09:24:37;;;;;;;;;;;26.10;88.50;;;;;;5080331;28;19909;-72
2022/07/22 09:27:03;;;;;;;;;;;26.10;88.50;;;;;;5080148;28;19916;-71
2022/07/22 09:29:29;;;;;;;;;;;26.10;88.60;;;;;;5080569;28;19915;-71
2022/07/22 09:31:55;;;;;;;;;;;26.10;88.50;;;;;;5080132;28;19958;-72
2022/07/22 09:34:30;;;;;;;;;;;26.10;88.60;;;;;;5062409;28;19992;-71
2022/07/22 09:36:57;;;;;;;;;;;26.10;88.60;;;;;;5080008;28;19920;-71
2022/07/22 09:39:30;;;;;;;;;;;26.00;88.50;;;;;;5080044;28;19944;-70
2022/07/22 09:41:58;;;;;;;;;;;26.00;88.50;;;;;;5080229;28;19913;-71
2022/07/22 09:44:23;;;;;;;;;;;26.10;88.60;;;;;;5079596;28;19909;-71
2022/07/22 09:46:49;;;;;;;;;;;26.10;88.60;;;;;;5061837;28;19909;-71
2022/07/22 09:49:30;;;;;;;;;;;26.10;88.60;;;;;;5079801;28;20010;-71
2022/07/22 09:51:56;;;;;;;;;;;26.10;88.50;;;;;;5079719;28;19913;-70
2022/07/22 09:54:22;;;;;;;;;;;26.10;88.60;;;;;;5079876;28;20322;-71
2022/07/22 09:56:47;;;;;;;;;;;26.10;88.50;;;;;;5079679;28;19967;-71
2022/07/22 09:59:13;;;;;;;;;;;26.10;88.60;;;;;;5079757;28;20348;-71
2022/07/22 10:01:38;;;;;;;;;;;26.10;88.60;;;;;;5079817;28;19915;-71
2022/07/22 10:04:05;;;;;;;;;;;26.10;88.50;;;;;;5061760;28;19931;-72
2022/07/22 10:06:31;;;;;;;;;;;26.10;88.60;;;;;;5079340;28;19948;-71
2022/07/22 10:08:59;;;;;;;;;;;26.10;88.50;;;;;;5079443;28;20150;-71
2022/07/22 10:11:24;;;;;;;;;;;26.10;88.60;;;;;;5079776;28;19944;-72
2022/07/22 10:13:50;;;;;;;;;;;26.10;89.00;;;;;;5079533;28;19916;-71
2022/07/22 10:16:16;;;;;;;;;;;26.10;88.60;;;;;;5079110;28;20352;-72
2022/07/22 10:18:46;;;;;;;;;;;26.10;88.50;;;;;;5079442;28;19912;-72
2022/07/22 10:21:11;;;;;;;;;;;26.10;88.50;;;;;;5061522;28;20011;-72
2022/07/22 10:23:57;;;;;;;;;;;26.00;88.50;;;;;;5061573;28;20371;-71
2022/07/22 10:26:42;;;;;;;;;;;26.10;88.50;;;;;;5079149;28;19987;-71
2022/07/22 10:29:24;;;;;;;;;;;26.10;88.50;;;;;;5079398;28;19909;-71
2022/07/22 10:31:50;;;;;;;;;;;26.10;88.50;;;;;;5077842;28;19908;-72
2022/07/22 10:34:15;;;;;;;;;;;26.10;88.50;;;;;;5076057;28;19916;-72
2022/07/22 10:36:42;;;;;;;;;;;26.10;88.60;;;;;;5076403;28;19912;-71
2022/07/22 10:39:09;;;;;;;;;;;26.10;88.60;;;;;;5058595;28;19908;-71
2022/07/22 10:41:36;;;;;;;;;;;26.10;88.60;;;;;;5058467;28;19982;-71
2022/07/22 10:44:01;;;;;;;;;;;26.10;88.60;;;;;;5076372;28;19916;-71
2022/07/22 10:46:46;;;;;;;;;;;26.10;88.60;;;;;;5076130;28;19909;-71
2022/07/22 10:49:11;;;;;;;;;;;26.10;88.60;;;;;;5076281;28;19908;-71
2022/07/22 10:51:37;;;;;;;;;;;26.10;88.60;;;;;;5075914;28;19915;-71
2022/07/22 10:54:02;;;;;;;;;;;26.10;88.50;;;;;;5075958;28;19938;-71
2022/07/22 10:56:29;;;;;;;;;;;26.10;88.50;;;;;;5075519;28;20283;-72
2022/07/22 10:59:09;;;;;;;;;;;26.10;88.60;;;;;;5057658;28;19927;-70
2022/07/22 11:01:35;;;;;;;;;;;26.10;88.50;;;;;;5075464;28;19938;-71
2022/07/22 11:04:27;;;;;;;;;;;26.10;88.50;;;;;;5075888;28;19908;-71
2022/07/22 11:06:53;;;;;;;;;;;26.10;88.50;;;;;;5074143;28;19992;-71
2022/07/22 11:09:21;;;;;;;;;;;26.10;88.50;;;;;;5075791;28;19954;-72
2022/07/22 11:11:51;;;;;;;;;;;26.10;88.50;;;;;;5075876;28;19914;-71
2022/07/22 11:14:21;;;;;;;;;;;26.10;88.50;;;;;;5075750;28;19912;-71
2022/07/22 11:16:48;;;;;;;;;;;26.10;88.60;;;;;;5075439;28;20344;-72
2022/07/22 11:19:14;;;;;;;;;;;26.10;88.50;;;;;;5075511;28;19912;-71
2022/07/22 11:21:40;;;;;;;;;;;26.10;88.60;;;;;;5075272;28;19978;-71
2022/07/22 11:24:07;;;;;;;;;;;26.10;88.60;;;;;;5075167;28;20012;-71
2022/07/22 11:26:44;;;;;;;;;;;26.10;88.60;;;;;;5075519;28;20003;-71
2022/07/22 11:29:10;;;;;;;;;;;26.10;88.60;;;;;;5075606;28;19995;-71
2022/07/22 11:31:37;;;;;;;;;;;26.10;88.60;;;;;;5075455;28;19962;-71
2022/07/22 11:34:06;;;;;;;;;;;26.10;88.60;;;;;;5074903;28;19916;-71
2022/07/22 11:36:32;;;;;;;;;;;26.10;88.60;;;;;;5075497;28;20248;-72
2022/07/22 11:38:58;;;;;;;;;;;26.10;88.60;;;;;;5075102;28;19916;-71
2022/07/22 11:41:23;;;;;;;;;;;26.10;88.60;;;;;;5074929;28;19919;-71
2022/07/22 11:43:49;;;;;;;;;;;26.10;88.60;;;;;;5074628;28;20045;-71
2022/07/22 11:46:16;;;;;;;;;;;26.10;88.60;;;;;;5075036;28;19984;-71
2022/07/22 11:48:42;;;;;;;;;;;26.10;88.60;;;;;;5074986;28;19947;-71
2022/07/22 11:51:12;;;;;;;;;;;26.10;88.60;;;;;;5074910;28;20351;-71
2022/07/22 11:53:38;;;;;;;;;;;26.10;88.60;;;;;;5074877;28;19916;-71
2022/07/22 11:56:04;;;;;;;;;;;26.10;88.60;;;;;;5074735;28;19912;-71
2022/07/22 11:58:40;;;;;;;;;;;26.10;88.60;;;;;;5056741;28;19924;-71
2022/07/22 12:01:06;;;;;;;;;;;26.10;88.60;;;;;;5056901;28;19915;-71
2022/07/22 12:03:35;;;;;;;;;;;26.10;88.60;;;;;;5074788;28;20013;-71
2022/07/22 12:06:02;;;;;;;;;;;26.10;88.60;;;;;;5056723;28;19908;-71
2022/07/22 12:08:28;;;;;;;;;;;26.10;88.60;;;;;;5074745;28;19947;-72
2022/07/22 12:10:55;;;;;;;;;;;26.10;88.60;;;;;;5056549;28;19915;-72
2022/07/22 12:13:21;;;;;;;;;;;26.10;88.60;;;;;;5074224;28;20431;-71
2022/07/22 12:15:46;;;;;;;;;;;26.10;88.60;;;;;;5056465;28;19971;-72
2022/07/22 12:18:20;;;;;;;;;;;26.10;88.60;;;;;;5073941;28;19923;-72
2022/07/22 12:20:46;;;;;;;;;;;26.10;88.60;;;;;;5056350;28;19967;-71
2022/07/22 12:23:12;;;;;;;;;;;26.10;88.60;;;;;;5073905;28;20016;-73
2022/07/22 12:25:56;;;;;;;;;;;26.10;88.60;;;;;;5073939;28;20335;-72
2022/07/22 12:28:22;;;;;;;;;;;26.10;88.60;;;;;;5074145;28;19912;-71
2022/07/22 12:30:48;;;;;;;;;;;26.10;88.60;;;;;;5056243;28;19919;-72
2022/07/22 12:33:15;;;;;;;;;;;26.10;88.60;;;;;;5074304;28;19908;-72
2022/07/22 12:35:41;;;;;;;;;;;26.10;88.60;;;;;;5074076;28;19924;-72
2022/07/22 12:38:08;;;;;;;;;;;26.10;88.60;;;;;;5073808;28;20413;-71
2022/07/22 12:40:33;;;;;;;;;;;26.10;88.60;;;;;;5074278;28;20221;-71
2022/07/22 12:43:00;;;;;;;;;;;26.10;88.60;;;;;;5073836;28;19915;-71
2022/07/22 12:45:27;;;;;;;;;;;26.10;88.70;;;;;;5073902;28;19919;-71
2022/07/22 12:48:03;;;;;;;;;;;26.10;88.60;;;;;;5074159;28;19954;-72
2022/07/22 12:50:33;;;;;;;;;;;26.10;88.60;;;;;;5073854;28;19908;-71
2022/07/22 12:52:59;;;;;;;;;;;26.10;88.60;;;;;;5073861;28;19915;-71
2022/07/22 12:55:27;;;;;;;;;;;26.10;88.60;;;;;;5072793;28;20157;-71
2022/07/22 12:57:52;;;;;;;;;;;26.10;88.70;;;;;;5073684;28;19932;-71
2022/07/22 13:00:20;;;;;;;;;;;26.10;88.60;;;;;;5073994;28;20363;-72
2022/07/22 13:02:45;;;;;;;;;;;26.10;88.60;;;;;;5074155;28;19916;-72
2022/07/22 13:05:11;;;;;;;;;;;26.10;88.60;;;;;;5073896;28;19931;-72
2022/07/22 13:07:37;;;;;;;;;;;26.10;88.60;;;;;;5073822;28;19954;-71
2022/07/22 13:10:03;;;;;;;;;;;26.10;88.60;;;;;;5073588;28;20319;-71
2022/07/22 13:12:29;;;;;;;;;;;26.10;88.60;;;;;;5055541;28;19958;-71
2022/07/22 13:14:54;;;;;;;;;;;26.10;88.60;;;;;;5055689;28;20000;-71
2022/07/22 13:17:19;;;;;;;;;;;26.10;88.60;;;;;;5073565;28;20274;-71
2022/07/22 13:19:45;;;;;;;;;;;26.10;89.20;;;;;;5073627;28;20003;-71
2022/07/22 13:22:11;;;;;;;;;;;26.10;88.60;;;;;;5073692;28;19908;-71
2022/07/22 13:24:36;;;;;;;;;;;26.10;88.60;;;;;;5055598;28;19909;-71
2022/07/22 13:27:02;;;;;;;;;;;26.10;88.60;;;;;;5073515;28;19908;-70
2022/07/22 13:29:27;;;;;;;;;;;26.10;88.60;;;;;;5055645;28;19916;-72
2022/07/22 13:31:53;;;;;;;;;;;26.10;88.60;;;;;;5073612;28;20343;-70
2022/07/22 13:34:18;;;;;;;;;;;26.10;89.10;;;;;;5055521;28;19979;-72
2022/07/22 13:36:44;;;;;;;;;;;26.10;88.60;;;;;;5073178;28;19909;-71
2022/07/22 13:39:09;;;;;;;;;;;26.10;88.60;;;;;;5055693;28;19909;-71
2022/07/22 13:41:35;;;;;;;;;;;26.10;88.70;;;;;;5073923;28;19917;-71
2022/07/22 13:44:00;;;;;;;;;;;26.10;88.70;;;;;;5055277;28;20011;-71
2022/07/22 13:46:26;;;;;;;;;;;26.10;88.70;;;;;;5073080;28;19986;-71
2022/07/22 13:48:52;;;;;;;;;;;26.10;88.70;;;;;;5073184;28;19908;-71
2022/07/22 13:51:18;;;;;;;;;;;26.10;88.70;;;;;;5073569;28;19954;-71
2022/07/22 13:53:43;;;;;;;;;;;26.10;88.70;;;;;;5073730;28;19912;-71
2022/07/22 13:56:10;;;;;;;;;;;26.10;88.70;;;;;;5073274;28;19999;-71
2022/07/22 13:58:37;;;;;;;;;;;26.10;88.70;;;;;;5073026;28;19986;-71
2022/07/22 14:01:02;;;;;;;;;;;26.10;88.70;;;;;;5055483;28;19931;-71
2022/07/22 14:03:29;;;;;;;;;;;26.10;88.70;;;;;;5073286;28;20364;-71
2022/07/22 14:05:54;;;;;;;;;;;26.10;88.70;;;;;;5073450;28;20336;-70
2022/07/22 14:08:20;;;;;;;;;;;26.10;88.70;;;;;;5058749;28;19909;-71
2022/07/22 14:10:45;;;;;;;;;;;26.10;88.70;;;;;;5077158;28;20007;-71